sensor_id;sensor_type;location;lat;lon;timestamp;P1;durP1;ratioP1;P2;durP2;ratioP2
48578;SDS011;34357;51.948;6.132;2023-08-17T00:01:51;5.95;;;2.38;;
48578;SDS011;34357;51.948;6.132;2023-08-17T00:04:16;9.00;;;2.20;;
48578;SDS011;34357;51.948;6.132;2023-08-17T00:06:42;5.18;;;1.98;;
48578;SDS011;34357;51.948;6.132;2023-08-17T00:09:08;9.73;;;2.38;;
48578;SDS011;34357;51.948;6.132;2023-08-17T00:11:35;8.85;;;2.80;;
48578;SDS011;34357;51.948;6.132;2023-08-17T00:14:01;8.15;;;2.22;;
48578;SDS011;34357;51.948;6.132;2023-08-17T00:16:27;5.28;;;2.33;;
48578;SDS011;34357;51.948;6.132;2023-08-17T00:18:54;5.55;;;2.00;;
48578;SDS011;34357;51.948;6.132;2023-08-17T00:21:20;7.63;;;2.72;;
48578;SDS011;34357;51.948;6.132;2023-08-17T00:23:45;7.82;;;2.15;;
48578;SDS011;34357;51.948;6.132;2023-08-17T00:26:11;9.02;;;2.35;;
48578;SDS011;34357;51.948;6.132;2023-08-17T00:28:37;7.25;;;2.45;;
48578;SDS011;34357;51.948;6.132;2023-08-17T00:31:03;5.63;;;2.42;;
48578;SDS011;34357;51.948;6.132;2023-08-17T00:33:29;6.47;;;2.70;;
48578;SDS011;34357;51.948;6.132;2023-08-17T00:35:55;8.75;;;2.60;;
48578;SDS011;34357;51.948;6.132;2023-08-17T00:38:20;6.65;;;2.70;;
48578;SDS011;34357;51.948;6.132;2023-08-17T00:40:46;9.68;;;2.58;;
48578;SDS011;34357;51.948;6.132;2023-08-17T00:43:12;8.88;;;2.97;;
48578;SDS011;34357;51.948;6.132;2023-08-17T00:45:38;7.22;;;2.75;;
48578;SDS011;34357;51.948;6.132;2023-08-17T00:48:05;10.60;;;2.83;;
48578;SDS011;34357;51.948;6.132;2023-08-17T00:50:34;7.35;;;2.50;;
48578;SDS011;34357;51.948;6.132;2023-08-17T00:53:01;7.63;;;2.53;;
48578;SDS011;34357;51.948;6.132;2023-08-17T00:55:28;7.30;;;2.47;;
48578;SDS011;34357;51.948;6.132;2023-08-17T00:57:53;8.52;;;2.75;;
48578;SDS011;34357;51.948;6.132;2023-08-17T01:00:21;8.82;;;2.65;;
48578;SDS011;34357;51.948;6.132;2023-08-17T01:02:48;7.18;;;2.60;;
48578;SDS011;34357;51.948;6.132;2023-08-17T01:05:16;6.35;;;2.60;;
48578;SDS011;34357;51.948;6.132;2023-08-17T01:07:41;10.02;;;3.17;;
48578;SDS011;34357;51.948;6.132;2023-08-17T01:10:07;8.93;;;2.70;;
48578;SDS011;34357;51.948;6.132;2023-08-17T01:12:45;6.75;;;2.83;;
48578;SDS011;34357;51.948;6.132;2023-08-17T01:17:52;8.68;;;2.08;;
48578;SDS011;34357;51.948;6.132;2023-08-17T01:20:22;5.97;;;2.47;;
48578;SDS011;34357;51.948;6.132;2023-08-17T01:22:49;7.78;;;2.50;;
48578;SDS011;34357;51.948;6.132;2023-08-17T01:25:17;8.30;;;2.58;;
48578;SDS011;34357;51.948;6.132;2023-08-17T01:27:43;5.70;;;3.00;;
48578;SDS011;34357;51.948;6.132;2023-08-17T01:30:11;7.00;;;2.53;;
48578;SDS011;34357;51.948;6.132;2023-08-17T01:33:00;9.80;;;3.33;;
48578;SDS011;34357;51.948;6.132;2023-08-17T01:35:44;9.05;;;2.70;;
48578;SDS011;34357;51.948;6.132;2023-08-17T01:38:17;10.20;;;2.78;;
48578;SDS011;34357;51.948;6.132;2023-08-17T01:40:46;10.75;;;2.70;;
48578;SDS011;34357;51.948;6.132;2023-08-17T01:43:13;10.30;;;3.15;;
48578;SDS011;34357;51.948;6.132;2023-08-17T01:45:43;8.68;;;2.88;;
48578;SDS011;34357;51.948;6.132;2023-08-17T01:48:09;10.10;;;2.80;;
48578;SDS011;34357;51.948;6.132;2023-08-17T01:50:36;8.75;;;2.78;;
48578;SDS011;34357;51.948;6.132;2023-08-17T01:53:01;6.18;;;2.88;;
48578;SDS011;34357;51.948;6.132;2023-08-17T01:55:27;10.13;;;3.00;;
48578;SDS011;34357;51.948;6.132;2023-08-17T01:57:53;6.35;;;2.72;;
48578;SDS011;34357;51.948;6.132;2023-08-17T02:00:19;7.28;;;3.13;;
48578;SDS011;34357;51.948;6.132;2023-08-17T02:02:44;8.68;;;3.28;;
48578;SDS011;34357;51.948;6.132;2023-08-17T02:05:10;10.70;;;3.00;;
48578;SDS011;34357;51.948;6.132;2023-08-17T02:07:36;10.25;;;3.47;;
48578;SDS011;34357;51.948;6.132;2023-08-17T02:10:02;9.48;;;3.38;;
48578;SDS011;34357;51.948;6.132;2023-08-17T02:12:28;5.50;;;3.30;;
48578;SDS011;34357;51.948;6.132;2023-08-17T02:14:54;6.78;;;2.97;;
48578;SDS011;34357;51.948;6.132;2023-08-17T02:17:20;10.73;;;3.13;;
48578;SDS011;34357;51.948;6.132;2023-08-17T02:19:47;11.02;;;3.38;;
48578;SDS011;34357;51.948;6.132;2023-08-17T02:22:13;12.35;;;3.47;;
48578;SDS011;34357;51.948;6.132;2023-08-17T02:24:39;7.38;;;3.35;;
48578;SDS011;34357;51.948;6.132;2023-08-17T02:27:06;9.18;;;3.40;;
48578;SDS011;34357;51.948;6.132;2023-08-17T02:29:34;9.65;;;3.28;;
48578;SDS011;34357;51.948;6.132;2023-08-17T02:31:59;8.00;;;3.28;;
48578;SDS011;34357;51.948;6.132;2023-08-17T02:34:26;5.63;;;2.78;;
48578;SDS011;34357;51.948;6.132;2023-08-17T02:36:51;7.00;;;2.97;;
48578;SDS011;34357;51.948;6.132;2023-08-17T02:39:17;9.65;;;3.20;;
48578;SDS011;34357;51.948;6.132;2023-08-17T02:41:43;7.82;;;3.25;;
48578;SDS011;34357;51.948;6.132;2023-08-17T02:44:10;7.70;;;3.53;;
48578;SDS011;34357;51.948;6.132;2023-08-17T02:46:35;7.55;;;2.95;;
48578;SDS011;34357;51.948;6.132;2023-08-17T02:49:01;9.57;;;3.60;;
48578;SDS011;34357;51.948;6.132;2023-08-17T02:51:27;5.55;;;2.85;;
48578;SDS011;34357;51.948;6.132;2023-08-17T02:53:53;8.63;;;3.38;;
48578;SDS011;34357;51.948;6.132;2023-08-17T02:56:19;13.48;;;3.58;;
48578;SDS011;34357;51.948;6.132;2023-08-17T02:58:46;9.38;;;3.65;;
48578;SDS011;34357;51.948;6.132;2023-08-17T03:01:12;9.85;;;3.42;;
48578;SDS011;34357;51.948;6.132;2023-08-17T03:03:38;8.95;;;3.50;;
48578;SDS011;34357;51.948;6.132;2023-08-17T03:06:04;7.95;;;3.47;;
48578;SDS011;34357;51.948;6.132;2023-08-17T03:08:30;8.10;;;3.30;;
48578;SDS011;34357;51.948;6.132;2023-08-17T03:10:56;8.88;;;3.35;;
48578;SDS011;34357;51.948;6.132;2023-08-17T03:13:22;10.98;;;3.22;;
48578;SDS011;34357;51.948;6.132;2023-08-17T03:15:47;6.63;;;3.40;;
48578;SDS011;34357;51.948;6.132;2023-08-17T03:18:14;8.43;;;3.35;;
48578;SDS011;34357;51.948;6.132;2023-08-17T03:20:40;6.85;;;3.15;;
48578;SDS011;34357;51.948;6.132;2023-08-17T03:23:06;7.32;;;3.20;;
48578;SDS011;34357;51.948;6.132;2023-08-17T03:25:33;9.20;;;3.33;;
48578;SDS011;34357;51.948;6.132;2023-08-17T03:28:00;10.88;;;3.42;;
48578;SDS011;34357;51.948;6.132;2023-08-17T03:30:26;8.02;;;2.85;;
48578;SDS011;34357;51.948;6.132;2023-08-17T03:32:52;6.78;;;3.03;;
48578;SDS011;34357;51.948;6.132;2023-08-17T03:35:18;10.15;;;3.35;;
48578;SDS011;34357;51.948;6.132;2023-08-17T03:37:44;14.05;;;3.97;;
48578;SDS011;34357;51.948;6.132;2023-08-17T03:40:11;7.47;;;2.97;;
48578;SDS011;34357;51.948;6.132;2023-08-17T03:42:37;11.27;;;3.42;;
48578;SDS011;34357;51.948;6.132;2023-08-17T03:45:03;8.50;;;3.15;;
48578;SDS011;34357;51.948;6.132;2023-08-17T03:47:29;10.68;;;4.00;;
48578;SDS011;34357;51.948;6.132;2023-08-17T03:49:55;5.75;;;3.20;;
48578;SDS011;34357;51.948;6.132;2023-08-17T03:52:20;11.32;;;3.50;;
48578;SDS011;34357;51.948;6.132;2023-08-17T03:54:47;7.53;;;3.83;;
48578;SDS011;34357;51.948;6.132;2023-08-17T03:57:12;9.45;;;3.20;;
48578;SDS011;34357;51.948;6.132;2023-08-17T03:59:38;8.45;;;3.42;;
48578;SDS011;34357;51.948;6.132;2023-08-17T04:02:04;9.23;;;3.33;;
48578;SDS011;34357;51.948;6.132;2023-08-17T04:04:31;8.50;;;3.40;;
48578;SDS011;34357;51.948;6.132;2023-08-17T04:06:57;9.75;;;3.70;;
48578;SDS011;34357;51.948;6.132;2023-08-17T04:09:23;10.38;;;3.35;;
48578;SDS011;34357;51.948;6.132;2023-08-17T04:11:49;7.90;;;3.08;;
48578;SDS011;34357;51.948;6.132;2023-08-17T04:14:14;11.75;;;3.63;;
48578;SDS011;34357;51.948;6.132;2023-08-17T04:16:40;7.80;;;3.30;;
48578;SDS011;34357;51.948;6.132;2023-08-17T04:19:07;9.85;;;3.33;;
48578;SDS011;34357;51.948;6.132;2023-08-17T04:21:33;8.82;;;3.28;;
48578;SDS011;34357;51.948;6.132;2023-08-17T04:23:59;10.40;;;3.30;;
48578;SDS011;34357;51.948;6.132;2023-08-17T04:26:25;8.57;;;3.72;;
48578;SDS011;34357;51.948;6.132;2023-08-17T04:28:51;7.85;;;2.97;;
48578;SDS011;34357;51.948;6.132;2023-08-17T04:31:16;10.30;;;3.53;;
48578;SDS011;34357;51.948;6.132;2023-08-17T04:33:44;7.13;;;3.38;;
48578;SDS011;34357;51.948;6.132;2023-08-17T04:36:10;6.80;;;2.95;;
48578;SDS011;34357;51.948;6.132;2023-08-17T04:38:36;5.57;;;3.13;;
48578;SDS011;34357;51.948;6.132;2023-08-17T04:41:02;8.95;;;3.95;;
48578;SDS011;34357;51.948;6.132;2023-08-17T04:43:28;8.60;;;3.85;;
48578;SDS011;34357;51.948;6.132;2023-08-17T04:45:55;8.50;;;3.55;;
48578;SDS011;34357;51.948;6.132;2023-08-17T04:48:21;13.32;;;4.30;;
48578;SDS011;34357;51.948;6.132;2023-08-17T04:50:48;7.05;;;3.47;;
48578;SDS011;34357;51.948;6.132;2023-08-17T04:53:14;9.70;;;3.97;;
48578;SDS011;34357;51.948;6.132;2023-08-17T04:55:40;8.63;;;3.25;;
48578;SDS011;34357;51.948;6.132;2023-08-17T04:58:06;7.20;;;3.47;;
48578;SDS011;34357;51.948;6.132;2023-08-17T05:00:32;9.90;;;3.75;;
48578;SDS011;34357;51.948;6.132;2023-08-17T05:02:58;11.30;;;3.72;;
48578;SDS011;34357;51.948;6.132;2023-08-17T05:05:29;11.65;;;3.50;;
48578;SDS011;34357;51.948;6.132;2023-08-17T05:07:55;5.60;;;2.97;;
48578;SDS011;34357;51.948;6.132;2023-08-17T05:10:21;11.88;;;3.35;;
48578;SDS011;34357;51.948;6.132;2023-08-17T05:12:47;9.48;;;3.22;;
48578;SDS011;34357;51.948;6.132;2023-08-17T05:15:13;9.02;;;3.95;;
48578;SDS011;34357;51.948;6.132;2023-08-17T05:17:39;9.38;;;3.20;;
48578;SDS011;34357;51.948;6.132;2023-08-17T05:20:05;11.40;;;3.10;;
48578;SDS011;34357;51.948;6.132;2023-08-17T05:22:33;8.45;;;3.40;;
48578;SDS011;34357;51.948;6.132;2023-08-17T05:24:59;8.25;;;3.40;;
48578;SDS011;34357;51.948;6.132;2023-08-17T05:27:26;10.45;;;3.80;;
48578;SDS011;34357;51.948;6.132;2023-08-17T05:29:52;7.07;;;3.15;;
48578;SDS011;34357;51.948;6.132;2023-08-17T05:32:18;4.78;;;2.97;;
48578;SDS011;34357;51.948;6.132;2023-08-17T05:34:43;10.98;;;3.10;;
48578;SDS011;34357;51.948;6.132;2023-08-17T05:37:09;9.68;;;3.13;;
48578;SDS011;34357;51.948;6.132;2023-08-17T05:39:35;7.22;;;3.72;;
48578;SDS011;34357;51.948;6.132;2023-08-17T05:42:00;6.90;;;3.30;;
48578;SDS011;34357;51.948;6.132;2023-08-17T05:44:26;11.05;;;3.90;;
48578;SDS011;34357;51.948;6.132;2023-08-17T05:46:52;7.90;;;3.55;;
48578;SDS011;34357;51.948;6.132;2023-08-17T05:49:18;9.98;;;3.90;;
48578;SDS011;34357;51.948;6.132;2023-08-17T05:51:44;11.15;;;4.45;;
48578;SDS011;34357;51.948;6.132;2023-08-17T05:54:10;7.28;;;3.28;;
48578;SDS011;34357;51.948;6.132;2023-08-17T05:56:35;8.63;;;3.72;;
48578;SDS011;34357;51.948;6.132;2023-08-17T05:59:01;7.50;;;3.70;;
48578;SDS011;34357;51.948;6.132;2023-08-17T06:01:27;13.02;;;3.53;;
48578;SDS011;34357;51.948;6.132;2023-08-17T06:03:52;8.60;;;3.35;;
48578;SDS011;34357;51.948;6.132;2023-08-17T06:06:18;9.95;;;4.22;;
48578;SDS011;34357;51.948;6.132;2023-08-17T06:08:44;9.10;;;3.38;;
48578;SDS011;34357;51.948;6.132;2023-08-17T06:11:10;6.60;;;3.05;;
48578;SDS011;34357;51.948;6.132;2023-08-17T06:13:36;7.25;;;2.95;;
48578;SDS011;34357;51.948;6.132;2023-08-17T06:16:02;10.48;;;3.90;;
48578;SDS011;34357;51.948;6.132;2023-08-17T06:18:29;7.40;;;3.35;;
48578;SDS011;34357;51.948;6.132;2023-08-17T06:20:55;7.88;;;3.10;;
48578;SDS011;34357;51.948;6.132;2023-08-17T06:23:20;7.82;;;2.67;;
48578;SDS011;34357;51.948;6.132;2023-08-17T06:25:46;5.93;;;2.58;;
48578;SDS011;34357;51.948;6.132;2023-08-17T06:28:12;11.77;;;2.85;;
48578;SDS011;34357;51.948;6.132;2023-08-17T06:30:38;5.65;;;2.42;;
48578;SDS011;34357;51.948;6.132;2023-08-17T06:33:03;6.85;;;2.20;;
48578;SDS011;34357;51.948;6.132;2023-08-17T06:35:30;8.98;;;2.58;;
48578;SDS011;34357;51.948;6.132;2023-08-17T06:37:55;9.38;;;2.67;;
48578;SDS011;34357;51.948;6.132;2023-08-17T06:40:23;7.22;;;2.70;;
48578;SDS011;34357;51.948;6.132;2023-08-17T06:42:49;9.35;;;2.83;;
48578;SDS011;34357;51.948;6.132;2023-08-17T06:45:15;8.52;;;2.40;;
48578;SDS011;34357;51.948;6.132;2023-08-17T06:47:43;5.53;;;2.50;;
48578;SDS011;34357;51.948;6.132;2023-08-17T06:50:10;13.40;;;2.42;;
48578;SDS011;34357;51.948;6.132;2023-08-17T06:52:36;7.28;;;2.75;;
48578;SDS011;34357;51.948;6.132;2023-08-17T06:55:02;9.52;;;3.10;;
48578;SDS011;34357;51.948;6.132;2023-08-17T06:57:28;9.52;;;2.72;;
48578;SDS011;34357;51.948;6.132;2023-08-17T06:59:54;6.55;;;2.58;;
48578;SDS011;34357;51.948;6.132;2023-08-17T07:02:20;7.60;;;2.60;;
48578;SDS011;34357;51.948;6.132;2023-08-17T07:04:45;6.78;;;2.75;;
48578;SDS011;34357;51.948;6.132;2023-08-17T07:07:12;4.40;;;2.60;;
48578;SDS011;34357;51.948;6.132;2023-08-17T07:09:39;10.43;;;3.10;;
48578;SDS011;34357;51.948;6.132;2023-08-17T07:12:05;6.68;;;2.63;;
48578;SDS011;34357;51.948;6.132;2023-08-17T07:14:32;12.38;;;3.05;;
48578;SDS011;34357;51.948;6.132;2023-08-17T07:16:59;8.20;;;2.83;;
48578;SDS011;34357;51.948;6.132;2023-08-17T07:19:24;7.97;;;2.97;;
48578;SDS011;34357;51.948;6.132;2023-08-17T07:21:50;9.38;;;2.78;;
48578;SDS011;34357;51.948;6.132;2023-08-17T07:24:16;8.73;;;3.00;;
48578;SDS011;34357;51.948;6.132;2023-08-17T07:26:42;8.32;;;2.70;;
48578;SDS011;34357;51.948;6.132;2023-08-17T07:29:08;8.10;;;3.03;;
48578;SDS011;34357;51.948;6.132;2023-08-17T07:31:34;7.55;;;2.55;;
48578;SDS011;34357;51.948;6.132;2023-08-17T07:34:02;10.32;;;2.92;;
48578;SDS011;34357;51.948;6.132;2023-08-17T07:36:29;9.00;;;3.60;;
48578;SDS011;34357;51.948;6.132;2023-08-17T07:38:55;11.60;;;3.28;;
48578;SDS011;34357;51.948;6.132;2023-08-17T07:41:20;7.28;;;2.80;;
48578;SDS011;34357;51.948;6.132;2023-08-17T07:43:46;11.00;;;3.30;;
48578;SDS011;34357;51.948;6.132;2023-08-17T07:46:12;10.15;;;2.83;;
48578;SDS011;34357;51.948;6.132;2023-08-17T07:48:37;8.52;;;3.78;;
48578;SDS011;34357;51.948;6.132;2023-08-17T07:51:03;11.80;;;3.45;;
48578;SDS011;34357;51.948;6.132;2023-08-17T07:53:29;12.57;;;3.30;;
48578;SDS011;34357;51.948;6.132;2023-08-17T07:55:55;13.38;;;3.88;;
48578;SDS011;34357;51.948;6.132;2023-08-17T07:58:20;10.55;;;3.13;;
48578;SDS011;34357;51.948;6.132;2023-08-17T08:00:46;7.97;;;3.28;;
48578;SDS011;34357;51.948;6.132;2023-08-17T08:03:12;13.00;;;3.35;;
48578;SDS011;34357;51.948;6.132;2023-08-17T08:05:39;10.35;;;3.30;;
48578;SDS011;34357;51.948;6.132;2023-08-17T08:08:04;8.95;;;3.25;;
48578;SDS011;34357;51.948;6.132;2023-08-17T08:10:30;6.15;;;2.92;;
48578;SDS011;34357;51.948;6.132;2023-08-17T08:12:56;9.25;;;3.72;;
48578;SDS011;34357;51.948;6.132;2023-08-17T08:15:22;8.55;;;3.20;;
48578;SDS011;34357;51.948;6.132;2023-08-17T08:17:47;13.05;;;3.13;;
48578;SDS011;34357;51.948;6.132;2023-08-17T08:20:13;9.90;;;2.72;;
48578;SDS011;34357;51.948;6.132;2023-08-17T08:22:39;11.85;;;3.60;;
48578;SDS011;34357;51.948;6.132;2023-08-17T08:27:38;8.30;;;3.20;;
48578;SDS011;34357;51.948;6.132;2023-08-17T08:30:05;11.02;;;3.08;;
48578;SDS011;34357;51.948;6.132;2023-08-17T08:32:31;5.80;;;2.70;;
48578;SDS011;34357;51.948;6.132;2023-08-17T08:34:57;10.93;;;3.15;;
48578;SDS011;34357;51.948;6.132;2023-08-17T08:37:23;13.77;;;3.80;;
48578;SDS011;34357;51.948;6.132;2023-08-17T08:39:52;11.05;;;3.75;;
48578;SDS011;34357;51.948;6.132;2023-08-17T08:42:19;10.23;;;3.53;;
48578;SDS011;34357;51.948;6.132;2023-08-17T08:44:46;10.18;;;3.08;;
48578;SDS011;34357;51.948;6.132;2023-08-17T08:47:13;11.18;;;3.40;;
48578;SDS011;34357;51.948;6.132;2023-08-17T08:49:44;7.75;;;3.63;;
48578;SDS011;34357;51.948;6.132;2023-08-17T08:52:32;9.02;;;3.55;;
48578;SDS011;34357;51.948;6.132;2023-08-17T08:55:03;7.28;;;3.35;;
48578;SDS011;34357;51.948;6.132;2023-08-17T08:57:36;11.00;;;3.60;;
48578;SDS011;34357;51.948;6.132;2023-08-17T09:00:03;8.23;;;3.17;;
48578;SDS011;34357;51.948;6.132;2023-08-17T09:02:30;10.50;;;3.63;;
48578;SDS011;34357;51.948;6.132;2023-08-17T09:04:57;10.23;;;3.38;;
48578;SDS011;34357;51.948;6.132;2023-08-17T09:07:24;7.97;;;3.25;;
48578;SDS011;34357;51.948;6.132;2023-08-17T09:09:54;11.82;;;3.63;;
48578;SDS011;34357;51.948;6.132;2023-08-17T09:12:21;12.43;;;4.25;;
48578;SDS011;34357;51.948;6.132;2023-08-17T09:14:47;12.73;;;4.07;;
48578;SDS011;34357;51.948;6.132;2023-08-17T09:17:13;9.88;;;3.97;;
48578;SDS011;34357;51.948;6.132;2023-08-17T09:19:38;11.30;;;4.55;;
48578;SDS011;34357;51.948;6.132;2023-08-17T09:22:04;10.40;;;4.38;;
48578;SDS011;34357;51.948;6.132;2023-08-17T09:24:34;13.52;;;4.63;;
48578;SDS011;34357;51.948;6.132;2023-08-17T09:27:01;9.95;;;4.07;;
48578;SDS011;34357;51.948;6.132;2023-08-17T09:29:26;14.73;;;4.82;;
48578;SDS011;34357;51.948;6.132;2023-08-17T09:31:52;14.65;;;5.63;;
48578;SDS011;34357;51.948;6.132;2023-08-17T09:34:18;11.02;;;4.95;;
48578;SDS011;34357;51.948;6.132;2023-08-17T09:36:47;10.02;;;4.85;;
48578;SDS011;34357;51.948;6.132;2023-08-17T09:39:13;14.90;;;5.50;;
48578;SDS011;34357;51.948;6.132;2023-08-17T09:41:40;21.38;;;6.32;;
48578;SDS011;34357;51.948;6.132;2023-08-17T09:44:06;19.75;;;6.80;;
48578;SDS011;34357;51.948;6.132;2023-08-17T09:46:32;16.02;;;7.65;;
48578;SDS011;34357;51.948;6.132;2023-08-17T09:49:00;14.80;;;7.25;;
48578;SDS011;34357;51.948;6.132;2023-08-17T09:51:29;14.15;;;6.43;;
48578;SDS011;34357;51.948;6.132;2023-08-17T09:53:56;17.17;;;6.50;;
48578;SDS011;34357;51.948;6.132;2023-08-17T09:56:22;14.07;;;6.18;;
48578;SDS011;34357;51.948;6.132;2023-08-17T09:58:49;13.65;;;5.80;;
48578;SDS011;34357;51.948;6.132;2023-08-17T10:01:15;12.93;;;6.05;;
48578;SDS011;34357;51.948;6.132;2023-08-17T10:03:43;11.75;;;6.32;;
48578;SDS011;34357;51.948;6.132;2023-08-17T10:06:16;14.07;;;5.97;;
48578;SDS011;34357;51.948;6.132;2023-08-17T10:08:47;19.13;;;6.40;;
48578;SDS011;34357;51.948;6.132;2023-08-17T10:11:16;14.27;;;5.75;;
48578;SDS011;34357;51.948;6.132;2023-08-17T10:13:51;13.93;;;7.10;;
48578;SDS011;34357;51.948;6.132;2023-08-17T10:16:38;13.57;;;6.93;;
48578;SDS011;34357;51.948;6.132;2023-08-17T10:24:36;18.98;;;7.10;;
48578;SDS011;34357;51.948;6.132;2023-08-17T10:27:04;19.70;;;7.35;;
48578;SDS011;34357;51.948;6.132;2023-08-17T10:29:31;14.70;;;6.65;;
48578;SDS011;34357;51.948;6.132;2023-08-17T10:31:58;16.08;;;7.05;;
48578;SDS011;34357;51.948;6.132;2023-08-17T10:34:26;15.55;;;7.40;;
48578;SDS011;34357;51.948;6.132;2023-08-17T10:36:53;15.48;;;6.97;;
48578;SDS011;34357;51.948;6.132;2023-08-17T10:39:23;14.75;;;7.38;;
48578;SDS011;34357;51.948;6.132;2023-08-17T10:41:51;15.50;;;6.88;;
48578;SDS011;34357;51.948;6.132;2023-08-17T10:44:18;16.15;;;7.90;;
48578;SDS011;34357;51.948;6.132;2023-08-17T10:47:18;13.85;;;7.45;;
48578;SDS011;34357;51.948;6.132;2023-08-17T10:49:48;13.32;;;6.90;;
48578;SDS011;34357;51.948;6.132;2023-08-17T10:52:15;12.35;;;7.00;;
48578;SDS011;34357;51.948;6.132;2023-08-17T10:54:51;14.88;;;7.10;;
48578;SDS011;34357;51.948;6.132;2023-08-17T10:58:00;13.73;;;6.80;;
48578;SDS011;34357;51.948;6.132;2023-08-17T11:03:01;12.60;;;6.90;;
48578;SDS011;34357;51.948;6.132;2023-08-17T11:07:59;13.68;;;7.35;;
48578;SDS011;34357;51.948;6.132;2023-08-17T11:12:52;11.05;;;6.75;;
48578;SDS011;34357;51.948;6.132;2023-08-17T11:15:22;11.95;;;6.72;;
48578;SDS011;34357;51.948;6.132;2023-08-17T11:17:49;15.23;;;7.13;;
48578;SDS011;34357;51.948;6.132;2023-08-17T11:20:15;17.13;;;7.32;;
48578;SDS011;34357;51.948;6.132;2023-08-17T11:22:40;16.08;;;7.38;;
48578;SDS011;34357;51.948;6.132;2023-08-17T11:25:06;13.82;;;7.60;;
48578;SDS011;34357;51.948;6.132;2023-08-17T11:27:32;16.38;;;7.30;;
48578;SDS011;34357;51.948;6.132;2023-08-17T11:29:58;15.00;;;7.30;;
48578;SDS011;34357;51.948;6.132;2023-08-17T11:32:24;13.15;;;7.68;;
48578;SDS011;34357;51.948;6.132;2023-08-17T11:34:51;13.20;;;7.70;;
48578;SDS011;34357;51.948;6.132;2023-08-17T11:37:17;14.50;;;7.32;;
48578;SDS011;34357;51.948;6.132;2023-08-17T11:39:42;15.45;;;7.82;;
48578;SDS011;34357;51.948;6.132;2023-08-17T11:42:08;13.68;;;7.68;;
48578;SDS011;34357;51.948;6.132;2023-08-17T11:44:34;15.15;;;7.80;;
48578;SDS011;34357;51.948;6.132;2023-08-17T11:46:59;14.98;;;8.13;;
48578;SDS011;34357;51.948;6.132;2023-08-17T11:49:25;15.60;;;7.88;;
48578;SDS011;34357;51.948;6.132;2023-08-17T11:51:51;14.93;;;9.07;;
48578;SDS011;34357;51.948;6.132;2023-08-17T11:54:17;16.20;;;8.85;;
48578;SDS011;34357;51.948;6.132;2023-08-17T11:56:42;14.80;;;8.52;;
48578;SDS011;34357;51.948;6.132;2023-08-17T11:59:11;18.45;;;9.35;;
48578;SDS011;34357;51.948;6.132;2023-08-17T12:01:44;14.73;;;9.02;;
48578;SDS011;34357;51.948;6.132;2023-08-17T12:04:10;16.90;;;9.32;;
48578;SDS011;34357;51.948;6.132;2023-08-17T12:06:37;14.55;;;9.50;;
48578;SDS011;34357;51.948;6.132;2023-08-17T12:09:10;14.00;;;9.52;;
48578;SDS011;34357;51.948;6.132;2023-08-17T12:11:38;12.63;;;8.60;;
48578;SDS011;34357;51.948;6.132;2023-08-17T12:14:08;12.73;;;9.25;;
48578;SDS011;34357;51.948;6.132;2023-08-17T12:16:44;17.35;;;9.48;;
48578;SDS011;34357;51.948;6.132;2023-08-17T12:19:12;13.38;;;8.98;;
48578;SDS011;34357;51.948;6.132;2023-08-17T12:21:40;16.88;;;9.52;;
48578;SDS011;34357;51.948;6.132;2023-08-17T12:24:08;12.50;;;8.90;;
48578;SDS011;34357;51.948;6.132;2023-08-17T12:26:35;13.35;;;9.32;;
48578;SDS011;34357;51.948;6.132;2023-08-17T12:29:04;13.40;;;8.57;;
48578;SDS011;34357;51.948;6.132;2023-08-17T12:31:30;15.13;;;9.88;;
48578;SDS011;34357;51.948;6.132;2023-08-17T12:33:56;17.13;;;10.05;;
48578;SDS011;34357;51.948;6.132;2023-08-17T12:36:22;13.40;;;9.07;;
48578;SDS011;34357;51.948;6.132;2023-08-17T12:38:48;17.88;;;9.60;;
48578;SDS011;34357;51.948;6.132;2023-08-17T12:41:14;13.25;;;8.63;;
48578;SDS011;34357;51.948;6.132;2023-08-17T12:43:39;15.82;;;8.77;;
48578;SDS011;34357;51.948;6.132;2023-08-17T12:46:05;12.48;;;8.98;;
48578;SDS011;34357;51.948;6.132;2023-08-17T12:48:31;12.02;;;8.85;;
48578;SDS011;34357;51.948;6.132;2023-08-17T12:50:56;14.15;;;9.52;;
48578;SDS011;34357;51.948;6.132;2023-08-17T12:53:22;14.63;;;9.23;;
48578;SDS011;34357;51.948;6.132;2023-08-17T12:55:48;11.27;;;8.40;;
48578;SDS011;34357;51.948;6.132;2023-08-17T12:58:14;15.80;;;9.40;;
48578;SDS011;34357;51.948;6.132;2023-08-17T13:00:39;13.27;;;9.27;;
48578;SDS011;34357;51.948;6.132;2023-08-17T13:03:05;13.65;;;10.52;;
48578;SDS011;34357;51.948;6.132;2023-08-17T13:05:31;14.68;;;10.60;;
48578;SDS011;34357;51.948;6.132;2023-08-17T13:07:58;13.93;;;9.55;;
48578;SDS011;34357;51.948;6.132;2023-08-17T13:10:23;13.02;;;10.00;;
48578;SDS011;34357;51.948;6.132;2023-08-17T13:12:49;16.05;;;9.68;;
48578;SDS011;34357;51.948;6.132;2023-08-17T13:15:20;14.35;;;9.75;;
48578;SDS011;34357;51.948;6.132;2023-08-17T13:17:48;11.02;;;9.82;;
48578;SDS011;34357;51.948;6.132;2023-08-17T13:20:14;12.27;;;9.95;;
48578;SDS011;34357;51.948;6.132;2023-08-17T13:22:40;13.55;;;10.30;;
48578;SDS011;34357;51.948;6.132;2023-08-17T13:25:05;12.43;;;10.00;;
48578;SDS011;34357;51.948;6.132;2023-08-17T13:27:32;13.05;;;10.07;;
48578;SDS011;34357;51.948;6.132;2023-08-17T13:29:57;14.13;;;10.40;;
48578;SDS011;34357;51.948;6.132;2023-08-17T13:32:26;12.57;;;8.95;;
48578;SDS011;34357;51.948;6.132;2023-08-17T13:34:52;12.20;;;9.05;;
48578;SDS011;34357;51.948;6.132;2023-08-17T13:37:18;13.15;;;9.45;;
48578;SDS011;34357;51.948;6.132;2023-08-17T13:39:45;12.73;;;9.73;;
48578;SDS011;34357;51.948;6.132;2023-08-17T13:42:11;11.80;;;9.77;;
48578;SDS011;34357;51.948;6.132;2023-08-17T13:44:37;14.23;;;10.43;;
48578;SDS011;34357;51.948;6.132;2023-08-17T13:47:03;11.63;;;9.95;;
48578;SDS011;34357;51.948;6.132;2023-08-17T13:49:29;12.48;;;10.57;;
48578;SDS011;34357;51.948;6.132;2023-08-17T13:51:55;15.10;;;11.18;;
48578;SDS011;34357;51.948;6.132;2023-08-17T13:54:24;12.20;;;10.75;;
48578;SDS011;34357;51.948;6.132;2023-08-17T13:56:50;15.07;;;10.35;;
48578;SDS011;34357;51.948;6.132;2023-08-17T13:59:16;13.60;;;10.18;;
48578;SDS011;34357;51.948;6.132;2023-08-17T14:01:42;14.43;;;10.18;;
48578;SDS011;34357;51.948;6.132;2023-08-17T14:04:07;12.27;;;10.63;;
48578;SDS011;34357;51.948;6.132;2023-08-17T14:06:36;11.75;;;10.32;;
48578;SDS011;34357;51.948;6.132;2023-08-17T14:09:03;14.40;;;11.80;;
48578;SDS011;34357;51.948;6.132;2023-08-17T14:11:29;16.42;;;12.13;;
48578;SDS011;34357;51.948;6.132;2023-08-17T14:13:54;14.77;;;11.40;;
48578;SDS011;34357;51.948;6.132;2023-08-17T14:16:20;15.65;;;12.18;;
48578;SDS011;34357;51.948;6.132;2023-08-17T14:18:46;16.42;;;12.63;;
48578;SDS011;34357;51.948;6.132;2023-08-17T14:21:12;17.23;;;12.65;;
48578;SDS011;34357;51.948;6.132;2023-08-17T14:23:38;14.00;;;12.60;;
48578;SDS011;34357;51.948;6.132;2023-08-17T14:26:04;14.55;;;12.00;;
48578;SDS011;34357;51.948;6.132;2023-08-17T14:28:30;12.30;;;11.00;;
48578;SDS011;34357;51.948;6.132;2023-08-17T14:30:55;13.75;;;12.23;;
48578;SDS011;34357;51.948;6.132;2023-08-17T14:33:21;15.70;;;13.57;;
48578;SDS011;34357;51.948;6.132;2023-08-17T14:35:47;16.77;;;14.27;;
48578;SDS011;34357;51.948;6.132;2023-08-17T14:38:14;15.57;;;13.88;;
48578;SDS011;34357;51.948;6.132;2023-08-17T14:40:43;17.77;;;15.77;;
48578;SDS011;34357;51.948;6.132;2023-08-17T14:43:14;18.98;;;15.57;;
48578;SDS011;34357;51.948;6.132;2023-08-17T14:45:40;18.27;;;15.20;;
48578;SDS011;34357;51.948;6.132;2023-08-17T14:48:07;17.02;;;15.23;;
48578;SDS011;34357;51.948;6.132;2023-08-17T14:50:36;20.02;;;15.10;;
48578;SDS011;34357;51.948;6.132;2023-08-17T14:53:03;17.70;;;15.52;;
48578;SDS011;34357;51.948;6.132;2023-08-17T14:55:32;16.85;;;14.10;;